Time;durP1;ratioP1;P1;durP2;ratioP2;P2;SDS_P1;SDS_P2;PMS_P1;PMS_P2;Temp;Humidity;BMP_temperature;BMP_pressure;BME280_temperature;BME280_humidity;BME280_pressure;Samples;Min_cycle;Max_cycle;Signal;HPM_P1;HPM_P2
2022/08/22 00:01:14;;;;;;;0.50;0.30;;;;;;;20.67;100.00;94604.06;5095030;28;20838;-57
2022/08/22 00:03:54;;;;;;;0.60;0.50;;;;;;;21.13;100.00;94607.03;5095350;28;20466;-57
2022/08/22 00:06:31;;;;;;;0.50;0.40;;;;;;;20.79;100.00;94603.97;5094973;28;20851;-57
2022/08/22 00:09:11;;;;;;;0.50;0.30;;;;;;;20.54;100.00;94617.97;5094968;28;20471;-57
2022/08/22 00:11:47;;;;;;;0.73;0.73;;;;;;;20.68;100.00;94621.00;5094876;28;20511;-56
2022/08/22 00:14:23;;;;;;;1.43;1.33;;;;;;;20.96;100.00;94618.97;5094856;28;20432;-57
2022/08/22 00:17:05;;;;;;;0.80;0.80;;;;;;;20.99;100.00;94620.97;5094746;28;20464;-57
2022/08/22 00:19:47;;;;;;;0.40;0.30;;;;;;;21.41;100.00;94613.81;5094632;28;20558;-57
2022/08/22 00:22:23;;;;;;;0.50;0.33;;;;;;;21.10;100.00;94603.13;5094983;28;20436;-57
2022/08/22 00:25:03;;;;;;;0.50;0.30;;;;;;;21.51;100.00;94607.84;5094745;28;20530;-57
2022/08/22 00:27:38;;;;;;;0.50;0.30;;;;;;;21.77;100.00;94601.03;5094577;28;20428;-57
2022/08/22 00:30:15;;;;;;;0.40;0.20;;;;;;;21.87;100.00;94613.97;5094813;28;20427;-56
2022/08/22 00:32:49;;;;;;;0.50;0.30;;;;;;;21.89;100.00;94606.28;5094713;28;20503;-56
2022/08/22 00:35:24;;;;;;;0.77;0.30;;;;;;;21.96;100.00;94598.34;5094411;28;20511;-56
2022/08/22 00:38:01;;;;;;;0.40;0.30;;;;;;;21.01;100.00;94594.44;5094638;28;20496;-56
2022/08/22 00:40:45;;;;;;;1.13;0.60;;;;;;;19.96;100.00;94463.56;5094637;28;20454;-56
2022/08/22 00:43:53;;;;;;;1.00;0.70;;;;;;;21.01;100.00;94590.97;5094300;28;20432;-56
2022/08/22 00:46:49;;;;;;;2.60;0.70;;;;;;;21.56;100.00;94597.91;5094069;28;20475;-56
2022/08/22 00:49:48;;;;;;;0.80;0.70;;;;;;;21.44;100.00;94588.84;5094081;28;20448;-57
2022/08/22 00:52:34;;;;;;;0.70;0.63;;;;;;;21.44;100.00;94555.69;5094171;28;20887;-56
2022/08/22 00:55:20;;;;;;;0.67;0.47;;;;;;;21.90;100.00;94599.75;5092724;28;20490;-56
2022/08/22 00:58:08;;;;;;;0.60;0.50;;;;;;;21.19;100.00;94598.31;5094304;28;20499;-56
2022/08/22 01:00:44;;;;;;;0.50;0.37;;;;;;;20.78;100.00;94610.47;5094079;28;20528;-56
2022/08/22 01:03:46;;;;;;;1.67;0.70;;;;;;;20.57;100.00;94619.97;5093806;28;20814;-56
2022/08/22 01:06:24;;;;;;;0.50;0.40;;;;;;;20.48;100.00;94619.38;5076590;28;20523;-56
2022/08/22 01:09:05;;;;;;;1.87;0.70;;;;;;;20.14;100.00;94538.16;5093726;28;20430;-56
2022/08/22 01:11:51;;;;;;;2.77;0.87;;;;;;;21.07;100.00;94603.06;5093832;28;20425;-56
2022/08/22 01:14:37;;;;;;;0.57;0.40;;;;;;;20.56;100.00;94615.72;5093619;28;20459;-56
2022/08/22 01:17:36;;;;;;;0.57;0.50;;;;;;;20.50;100.00;94619.78;5093415;28;20464;-56
2022/08/22 01:20:33;;;;;;;0.47;0.40;;;;;;;21.01;100.00;94613.31;5093132;28;20507;-56
2022/08/22 01:23:55;;;;;;;1.00;0.70;;;;;;;21.04;100.00;94607.22;5093582;28;20516;-56
2022/08/22 01:26:54;;;;;;;0.60;0.40;;;;;;;21.33;100.00;94616.69;5093228;28;20511;-57
2022/08/22 01:30:10;;;;;;;0.50;0.50;;;;;;;21.39;100.00;94616.06;5093543;28;20514;-56
2022/08/22 01:33:09;;;;;;;0.40;0.23;;;;;;;21.24;100.00;94619.63;5093065;28;21014;-57
2022/08/22 01:36:02;;;;;;;0.40;0.20;;;;;;;21.33;100.00;94612.09;5093028;28;20769;-56
2022/08/22 01:38:59;;;;;;;0.60;0.60;;;;;;;21.31;100.00;94610.88;5093121;28;21004;-57
2022/08/22 01:41:49;;;;;;;0.93;0.93;;;;;;;21.24;100.00;94616.91;5088644;28;20560;-57
2022/08/22 01:44:39;;;;;;;0.60;0.30;;;;;;;21.18;100.00;94621.00;5093146;28;20512;-57
2022/08/22 01:47:14;;;;;;;0.87;0.87;;;;;;;21.28;100.00;94612.38;5093325;28;20456;-57
2022/08/22 01:49:48;;;;;;;1.07;0.70;;;;;;;21.31;100.00;94616.28;5092927;28;20424;-57
2022/08/22 01:52:33;;;;;;;1.20;0.63;;;;;;;20.58;100.00;94613.47;5092811;28;21074;-57
2022/08/22 01:55:07;;;;;;;0.50;0.40;;;;;;;19.82;100.00;94619.19;5092804;28;20463;-57
2022/08/22 01:57:51;;;;;;;6.80;1.23;;;;;;;19.25;100.00;94555.03;5092957;28;20429;-57
2022/08/22 02:00:22;;;;;;;0.70;0.70;;;;;;;18.20;100.00;94392.44;5092919;28;20933;-57
2022/08/22 02:03:18;;;;;;;0.57;0.47;;;;;;;20.19;100.00;94612.47;5093078;28;20417;-57
2022/08/22 02:05:52;;;;;;;0.60;0.50;;;;;;;20.55;100.00;94600.69;5092440;28;20460;-57
2022/08/22 02:08:31;;;;;;;1.00;0.60;;;;;;;19.99;100.00;94598.13;5092525;28;20440;-57
2022/08/22 02:11:04;;;;;;;4.30;1.67;;;;;;;19.38;100.00;94607.63;5092422;28;20511;-57
2022/08/22 02:13:53;;;;;;;1.23;1.13;;;;;;;19.29;100.00;94596.19;5092534;28;20500;-57
2022/08/22 02:16:32;;;;;;;0.77;0.77;;;;;;;19.24;100.00;94597.22;5092463;28;20507;-57
2022/08/22 02:19:21;;;;;;;13.23;1.00;;;;;;;19.31;100.00;94597.41;5092242;28;20558;-57
2022/08/22 02:21:54;;;;;;;1.10;1.10;;;;;;;19.45;100.00;94602.44;5092790;28;20836;-57
2022/08/22 02:24:37;;;;;;;6.10;1.10;;;;;;;20.02;100.00;94594.75;5092386;28;20941;-57
2022/08/22 02:27:11;;;;;;;0.87;0.50;;;;;;;20.29;100.00;94595.06;5092254;28;20426;-57
2022/08/22 02:29:47;;;;;;;0.80;0.80;;;;;;;20.06;100.00;94592.16;5092234;28;20508;-57
2022/08/22 02:32:22;;;;;;;0.70;0.70;;;;;;;20.37;100.00;94592.19;5091830;28;20508;-57
2022/08/22 02:35:02;;;;;;;0.90;0.40;;;;;;;20.13;100.00;94603.88;5092017;28;20527;-57
2022/08/22 02:37:37;;;;;;;1.03;1.00;;;;;;;19.89;100.00;94598.63;5092050;28;20432;-58
2022/08/22 02:40:16;;;;;;;0.50;0.40;;;;;;;20.33;100.00;94599.41;5092126;28;20426;-58
2022/08/22 02:42:51;;;;;;;0.63;0.63;;;;;;;20.79;100.00;94590.50;5092049;28;20920;-58
2022/08/22 02:45:30;;;;;;;0.50;0.40;;;;;;;20.92;100.00;94588.47;5092369;28;20787;-58
2022/08/22 02:48:04;;;;;;;0.50;0.40;;;;;;;21.03;100.00;94589.47;5091907;28;20519;-57
2022/08/22 02:50:41;;;;;;;0.83;0.40;;;;;;;21.03;100.00;94586.00;5091981;28;20523;-58
2022/08/22 02:53:14;;;;;;;0.60;0.50;;;;;;;20.33;100.00;94594.03;5091806;28;21079;-56
2022/08/22 02:55:52;;;;;;;0.70;0.70;;;;;;;20.62;100.00;94595.47;5091903;28;20471;-56
2022/08/22 02:58:29;;;;;;;1.37;1.37;;;;;;;20.60;100.00;94563.50;5091785;28;21020;-57
2022/08/22 03:01:21;;;;;;;1.27;1.27;;;;;;;20.58;100.00;94584.63;5092085;28;20622;-57
2022/08/22 03:03:50;;;;;;;0.60;0.60;;;;;;;19.78;100.00;94599.50;5092111;28;20448;-57
2022/08/22 03:06:39;;;;;;;0.53;0.50;;;;;;;19.37;100.00;94589.94;5091732;28;20507;-57
2022/08/22 03:09:23;;;;;;;0.80;0.50;;;;;;;19.54;100.00;94595.78;5091797;28;20654;-57
2022/08/22 03:12:09;;;;;;;0.40;0.30;;;;;;;19.60;100.00;94589.06;5092070;28;20845;-57
2022/08/22 03:14:44;;;;;;;0.60;0.50;;;;;;;19.79;100.00;94566.09;5091611;28;20464;-57
2022/08/22 03:17:17;;;;;;;0.70;0.60;;;;;;;20.20;100.00;94590.59;5091615;28;20518;-57
2022/08/22 03:20:02;;;;;;;0.50;0.47;;;;;;;20.36;100.00;94597.94;5095052;28;20562;-57
2022/08/22 03:22:38;;;;;;;0.60;0.53;;;;;;;19.98;100.00;94593.91;5095703;28;20515;-57
2022/08/22 03:25:14;;;;;;;2.00;0.40;;;;;;;20.13;100.00;94587.75;5096063;28;20769;-57
2022/08/22 03:27:53;;;;;;;0.60;0.37;;;;;;;20.57;100.00;94588.44;5095700;28;20427;-57
2022/08/22 03:30:37;;;;;;;0.40;0.40;;;;;;;20.72;100.00;94594.94;5095695;28;21023;-58
2022/08/22 03:33:19;;;;;;;0.50;0.50;;;;;;;20.38;100.00;94592.97;5095652;28;20487;-58
2022/08/22 03:36:11;;;;;;;0.50;0.30;;;;;;;19.38;100.00;94592.25;5095570;28;20938;-58
2022/08/22 03:38:48;;;;;;;5.23;0.97;;;;;;;19.06;100.00;94568.28;5093308;28;20471;-58
2022/08/22 03:41:37;;;;;;;5.37;0.90;;;;;;;19.16;100.00;94595.44;5095517;28;20452;-58
2022/08/22 03:44:40;;;;;;;0.50;0.40;;;;;;;19.52;100.00;94591.88;5095351;28;20983;-58
2022/08/22 03:47:33;;;;;;;1.00;0.70;;;;;;;19.73;100.00;94592.47;5095210;28;20431;-58
2022/08/22 03:50:27;;;;;;;0.60;0.50;;;;;;;19.34;100.00;94598.63;5051501;28;20467;-59
2022/08/22 03:53:25;;;;;;;0.57;0.40;;;;;;;19.91;100.00;94585.63;5095212;28;20433;-57
2022/08/22 03:56:21;;;;;;;0.77;0.53;;;;;;;20.18;100.00;94598.25;5092837;28;21002;-58
2022/08/22 03:59:12;;;;;;;0.40;0.30;;;;;;;20.32;100.00;94588.97;5095259;28;20507;-58
2022/08/22 04:02:16;;;;;;;0.77;0.60;;;;;;;20.43;100.00;94601.56;5095417;28;20933;-59
2022/08/22 04:05:28;;;;;;;0.53;0.37;;;;;;;20.62;100.00;94606.22;5087298;28;20432;-58
2022/08/22 04:08:28;;;;;;;0.60;0.60;;;;;;;19.93;100.00;94606.81;5095380;28;20993;-58
2022/08/22 04:11:11;;;;;;;0.73;0.73;;;;;;;19.63;100.00;94617.91;5095154;28;20500;-58
2022/08/22 04:14:09;;;;;;;0.63;0.53;;;;;;;19.95;100.00;94618.00;5094944;28;20499;-58
2022/08/22 04:17:22;;;;;;;0.40;0.30;;;;;;;20.25;100.00;94619.97;5094226;28;20526;-59
2022/08/22 04:20:14;;;;;;;3.63;0.60;;;;;;;20.28;100.00;94629.28;5075621;28;20515;-59
2022/08/22 04:23:28;;;;;;;0.47;0.33;;;;;;;19.90;100.00;94623.63;5093463;28;21158;-59
2022/08/22 04:26:01;;;;;;;0.87;0.40;;;;;;;19.26;100.00;94575.38;5069459;28;20527;-59
2022/08/22 04:28:44;;;;;;;0.50;0.40;;;;;;;19.50;100.00;94621.00;5092754;28;20467;-60
2022/08/22 04:31:16;;;;;;;0.90;0.77;;;;;;;19.12;100.00;94623.34;5092931;28;20444;-60
2022/08/22 04:33:49;;;;;;;5.40;1.37;;;;;;;19.08;100.00;94625.91;5092593;28;20468;-59
2022/08/22 04:36:23;;;;;;;0.70;0.53;;;;;;;19.29;100.00;94628.44;5093288;28;20420;-59
2022/08/22 04:38:58;;;;;;;0.50;0.43;;;;;;;19.10;100.00;94622.91;5094008;28;21090;-59
2022/08/22 04:41:33;;;;;;;2.67;0.40;;;;;;;18.81;100.00;94575.63;5094293;28;20424;-59
2022/08/22 04:44:05;;;;;;;0.50;0.30;;;;;;;19.25;100.00;94624.88;5094153;28;20979;-59
2022/08/22 04:46:41;;;;;;;2.30;0.63;;;;;;;19.26;100.00;94637.97;5094027;28;20413;-58
2022/08/22 04:49:16;;;;;;;0.50;0.40;;;;;;;19.58;100.00;94636.22;5094131;28;20423;-59
2022/08/22 04:51:52;;;;;;;0.50;0.50;;;;;;;20.11;100.00;94633.03;5094145;28;20991;-58
2022/08/22 04:54:41;;;;;;;1.03;0.70;;;;;;;20.56;100.00;94635.34;5094011;28;20558;-58
2022/08/22 04:57:21;;;;;;;0.50;0.50;;;;;;;20.56;100.00;94635.34;5094031;28;20421;-58
2022/08/22 04:59:50;;;;;;;0.53;0.40;;;;;;;20.87;100.00;94627.22;5093905;28;20991;-58
2022/08/22 05:02:26;;;;;;;0.53;0.30;;;;;;;21.03;100.00;94623.72;5094112;28;20429;-57
2022/08/22 05:05:02;;;;;;;0.90;0.70;;;;;;;21.27;100.00;94618.91;5093839;28;20428;-57
2022/08/22 05:07:35;;;;;;;0.47;0.30;;;;;;;21.43;100.00;94629.63;5093654;28;20428;-57
2022/08/22 05:10:09;;;;;;;0.70;0.40;;;;;;;20.96;100.00;94621.66;5094066;28;20428;-57
2022/08/22 05:12:45;;;;;;;0.50;0.50;;;;;;;20.83;100.00;94612.13;5093443;28;20515;-57
2022/08/22 05:15:19;;;;;;;0.87;0.77;;;;;;;21.26;100.00;94619.25;5093398;28;21006;-57
2022/08/22 05:17:52;;;;;;;1.03;1.03;;;;;;;21.26;100.00;94625.44;5093507;28;20412;-57
2022/08/22 05:20:25;;;;;;;0.60;0.60;;;;;;;21.42;100.00;94622.69;5093334;28;20992;-56
2022/08/22 05:22:59;;;;;;;0.60;0.50;;;;;;;21.48;100.00;94589.69;5093683;28;20448;-56
2022/08/22 05:25:31;;;;;;;0.50;0.40;;;;;;;22.02;100.00;94632.75;5093456;28;20456;-57
2022/08/22 05:28:10;;;;;;;0.50;0.40;;;;;;;22.06;100.00;94586.94;5093311;28;20827;-56
2022/08/22 05:30:40;;;;;;;0.60;0.50;;;;;;;21.68;100.00;94568.09;5093197;28;20442;-56
2022/08/22 05:33:16;;;;;;;0.87;0.37;;;;;;;21.95;100.00;94631.84;5093576;28;20420;-56
2022/08/22 05:35:50;;;;;;;0.60;0.40;;;;;;;22.37;100.00;94632.59;5093167;28;20553;-56
2022/08/22 05:38:30;;;;;;;0.90;0.90;;;;;;;21.96;100.00;94571.34;5093214;28;20459;-56
2022/08/22 05:41:05;;;;;;;1.90;1.00;;;;;;;22.67;100.00;94638.91;5092490;28;20515;-56
2022/08/22 05:43:37;;;;;;;0.43;0.43;;;;;;;22.96;100.00;94642.06;5093282;28;20511;-56
2022/08/22 05:46:09;;;;;;;0.50;0.50;;;;;;;22.86;100.00;94648.88;5092867;28;20531;-56
2022/08/22 05:48:42;;;;;;;0.50;0.50;;;;;;;22.77;100.00;94642.91;5092916;28;20515;-56
2022/08/22 05:51:20;;;;;;;2.50;1.43;;;;;;;22.86;100.00;94645.38;5092996;28;20432;-55
2022/08/22 05:53:56;;;;;;;0.80;0.43;;;;;;;23.25;100.00;94644.06;5092705;28;20506;-55
2022/08/22 05:56:37;;;;;;;1.20;0.87;;;;;;;23.39;100.00;94646.97;5092747;28;20846;-55
2022/08/22 05:59:19;;;;;;;0.63;0.63;;;;;;;23.03;100.00;94612.44;5092855;28;20515;-55
2022/08/22 06:02:00;;;;;;;0.40;0.30;;;;;;;22.93;100.00;94656.28;5092670;28;20507;-55
2022/08/22 06:04:35;;;;;;;0.97;0.83;;;;;;;22.88;100.00;94653.91;5092547;28;20439;-55
2022/08/22 06:07:11;;;;;;;1.83;1.73;;;;;;;22.41;100.00;94587.56;5092650;28;20485;-55
2022/08/22 06:10:19;;;;;;;0.50;0.50;;;;;;;22.88;100.00;94653.91;5092634;28;20482;-55
2022/08/22 06:12:55;;;;;;;0.60;0.50;;;;;;;23.14;100.00;94660.13;5092787;28;20463;-55
2022/08/22 06:15:30;;;;;;;1.03;0.53;;;;;;;23.18;100.00;94654.75;5092884;28;20477;-55
2022/08/22 06:18:03;;;;;;;1.47;1.20;;;;;;;23.40;100.00;94656.66;5092597;28;20419;-55
2022/08/22 06:20:38;;;;;;;0.50;0.40;;;;;;;23.30;100.00;94657.25;5092735;28;20839;-55
2022/08/22 06:23:08;;;;;;;0.90;0.90;;;;;;;23.75;100.00;94654.41;5092441;28;20941;-54
2022/08/22 06:25:42;;;;;;;1.57;0.70;;;;;;;23.87;100.00;94627.09;5092248;28;20933;-54
2022/08/22 06:28:29;;;;;;;1.07;0.90;;;;;;;24.08;100.00;94658.28;5092366;28;20450;-54
2022/08/22 06:30:59;;;;;;;2.10;0.80;;;;;;;23.46;100.00;94655.16;5092219;28;20512;-54
2022/08/22 06:33:30;;;;;;;2.80;0.60;;;;;;;23.30;100.00;94658.00;5092184;28;20460;-54
2022/08/22 06:39:00;;;;;;;2.30;1.60;;;;;;;23.31;100.00;94648.75;5092272;28;20460;-54
2022/08/22 06:41:33;;;;;;;0.70;0.70;;;;;;;24.00;100.00;94652.75;5092085;28;20485;-54
2022/08/22 06:44:04;;;;;;;1.20;1.10;;;;;;;24.20;100.00;94658.00;5092354;28;20446;-55
2022/08/22 06:46:36;;;;;;;2.00;1.17;;;;;;;23.65;100.00;94660.47;5092262;28;20424;-55
2022/08/22 06:49:08;;;;;;;1.37;1.27;;;;;;;23.49;100.00;94667.19;5092362;28;20490;-55
2022/08/22 06:51:38;;;;;;;0.90;0.90;;;;;;;24.00;100.00;94658.19;5092305;28;20464;-56
2022/08/22 06:54:15;;;;;;;0.50;0.40;;;;;;;24.96;100.00;94645.56;5090932;28;20516;-55
2022/08/22 06:56:50;;;;;;;0.43;0.30;;;;;;;25.22;100.00;94648.84;5091744;28;20507;-55
2022/08/22 06:59:25;;;;;;;4.80;1.60;;;;;;;25.40;100.00;94637.34;5092152;28;20459;-55
2022/08/22 07:02:02;;;;;;;1.37;1.20;;;;;;;25.31;100.00;94650.44;5091698;28;20817;-55
2022/08/22 07:04:31;;;;;;;0.60;0.60;;;;;;;25.77;100.00;94608.06;5091694;28;20986;-56
2022/08/22 07:07:01;;;;;;;0.87;0.87;;;;;;;26.36;100.00;94591.16;5091652;28;20439;-56
2022/08/22 07:09:34;;;;;;;3.03;1.60;;;;;;;27.02;100.00;94638.56;5091727;28;21002;-56
2022/08/22 07:12:11;;;;;;;1.00;0.60;;;;;;;27.71;100.00;94644.31;5091713;28;20425;-56
2022/08/22 07:14:44;;;;;;;0.70;0.63;;;;;;;28.44;95.51;94643.59;5091653;28;20861;-56
2022/08/22 07:17:18;;;;;;;0.90;0.90;;;;;;;28.34;94.32;94645.19;5091409;28;20464;-56
2022/08/22 07:19:54;;;;;;;2.77;0.80;;;;;;;28.83;96.21;94650.38;5091310;28;20554;-56
2022/08/22 07:22:27;;;;;;;1.47;1.30;;;;;;;27.29;95.04;94513.78;5091538;28;20515;-56
2022/08/22 07:25:01;;;;;;;0.77;0.77;;;;;;;28.60;90.42;94624.78;5091653;28;20803;-57
2022/08/22 07:27:47;;;;;;;1.90;1.53;;;;;;;28.87;97.45;94637.47;5091635;28;20506;-57
2022/08/22 07:30:45;;;;;;;0.90;0.60;;;;;;;30.28;78.57;94631.72;5091747;28;20428;-56
2022/08/22 07:33:27;;;;;;;0.70;0.70;;;;;;;29.86;80.28;94635.75;5091500;28;20517;-56
2022/08/22 07:36:00;;;;;;;0.80;0.80;;;;;;;29.56;85.92;94625.53;5091885;28;20554;-56
2022/08/22 07:38:41;;;;;;;0.73;0.73;;;;;;;29.57;92.40;94616.19;5091722;28;20508;-56
2022/08/22 07:41:16;;;;;;;5.23;1.43;;;;;;;29.81;83.10;94614.34;5091608;28;20705;-56
2022/08/22 07:43:51;;;;;;;0.87;0.60;;;;;;;29.76;85.03;94612.03;5091885;28;20464;-56
2022/08/22 07:46:28;;;;;;;0.83;0.83;;;;;;;30.09;92.01;94622.19;5091674;28;20513;-56
2022/08/22 07:49:03;;;;;;;1.13;1.13;;;;;;;30.57;76.75;94611.78;5091517;28;20465;-56
2022/08/22 07:51:44;;;;;;;0.80;0.80;;;;;;;30.69;82.43;94613.94;5091458;28;20938;-56
2022/08/22 07:54:15;;;;;;;2.10;1.40;;;;;;;30.60;74.44;94610.19;5091348;28;20454;-57
2022/08/22 07:56:47;;;;;;;0.73;0.70;;;;;;;30.44;74.19;94612.75;5091110;28;21018;-57
2022/08/22 07:59:20;;;;;;;0.77;0.73;;;;;;;31.03;71.18;94602.88;5091638;28;20482;-57
2022/08/22 08:01:54;;;;;;;1.80;1.70;;;;;;;30.27;67.54;94608.28;5091475;28;20838;-57
2022/08/22 08:04:26;;;;;;;0.90;0.90;;;;;;;30.52;65.03;94601.31;5092930;28;20428;-57
2022/08/22 08:06:58;;;;;;;0.50;0.50;;;;;;;30.58;63.96;94566.06;5095208;28;20477;-57
2022/08/22 08:09:31;;;;;;;0.70;0.70;;;;;;;31.97;61.43;94596.03;5095376;28;20500;-57
2022/08/22 08:12:02;;;;;;;0.53;0.53;;;;;;;32.36;59.52;94584.25;5095229;28;20516;-57
2022/08/22 08:14:36;;;;;;;0.80;0.80;;;;;;;32.68;56.88;94583.53;5095300;28;20432;-57
2022/08/22 08:17:08;;;;;;;0.70;0.70;;;;;;;32.47;58.38;94593.78;5094915;28;20550;-57
2022/08/22 08:19:41;;;;;;;0.40;0.30;;;;;;;32.56;51.51;94591.22;5094771;28;20510;-57
2022/08/22 08:22:17;;;;;;;11.93;0.50;;;;;;;32.62;53.42;94586.00;5095083;28;20523;-57
2022/08/22 08:24:47;;;;;;;0.50;0.30;;;;;;;32.78;54.36;94582.50;5094672;28;20478;-58
2022/08/22 08:30:14;;;;;;;1.13;1.03;;;;;;;33.19;52.88;94580.69;5094433;28;20474;-57
2022/08/22 08:32:48;;;;;;;1.43;1.33;;;;;;;33.51;49.57;94579.84;5094808;28;20419;-57
2022/08/22 08:35:23;;;;;;;1.03;0.93;;;;;;;33.33;55.44;94552.06;5094666;28;20940;-57
2022/08/22 08:37:59;;;;;;;0.60;0.60;;;;;;;33.97;53.46;94583.31;5094740;28;20990;-57
2022/08/22 08:40:56;;;;;;;1.83;1.73;;;;;;;32.46;51.72;94586.72;5094619;28;20923;-57
2022/08/22 08:43:37;;;;;;;1.53;1.20;;;;;;;33.29;54.15;94578.88;5094359;28;20514;-57
2022/08/22 08:46:34;;;;;;;1.53;1.43;;;;;;;33.16;53.68;94578.81;5094498;28;20431;-57
2022/08/22 08:49:39;;;;;;;4.60;2.80;;;;;;;32.25;55.52;94589.97;5094246;28;20475;-57
2022/08/22 08:52:45;;;;;;;1.50;1.13;;;;;;;33.08;52.60;94580.19;5094315;28;20423;-57
2022/08/22 08:55:34;;;;;;;0.50;0.50;;;;;;;34.03;48.94;94574.06;5094226;28;20481;-59
2022/08/22 08:58:24;;;;;;;2.40;0.67;;;;;;;34.81;45.68;94571.75;5094306;28;20443;-59
2022/08/22 09:01:02;;;;;;;1.00;1.00;;;;;;;33.58;50.73;94571.44;5094619;28;20413;-60
2022/08/22 09:04:02;;;;;;;0.50;0.50;;;;;;;34.41;47.93;94561.16;5094111;28;20510;-60
2022/08/22 09:06:57;;;;;;;0.80;0.53;;;;;;;34.82;46.55;94538.25;5094292;28;20519;-60
2022/08/22 09:09:45;;;;;;;0.80;0.73;;;;;;;34.05;45.85;94557.16;5093454;28;20450;-60
2022/08/22 09:13:07;;;;;;;0.80;0.77;;;;;;;33.86;46.11;94558.88;5093971;28;20424;-60
2022/08/22 09:16:11;;;;;;;1.30;1.20;;;;;;;33.45;46.08;94558.81;5073937;28;20485;-61
2022/08/22 09:19:11;;;;;;;0.83;0.50;;;;;;;33.84;47.56;94556.56;5093554;28;20562;-61
2022/08/22 09:22:10;;;;;;;0.83;0.80;;;;;;;33.58;48.55;94556.91;5094101;28;20518;-59
2022/08/22 09:25:19;;;;;;;0.50;0.40;;;;;;;34.51;44.60;94545.50;5093663;28;20519;-60
2022/08/22 09:27:59;;;;;;;11.03;0.70;;;;;;;34.19;46.15;94540.25;5093974;28;20435;-59
2022/08/22 09:30:43;;;;;;;1.33;1.23;;;;;;;34.09;47.60;94530.34;5093767;28;20458;-59
2022/08/22 09:33:17;;;;;;;0.50;0.40;;;;;;;33.46;50.26;94543.88;5093587;28;20454;-61
2022/08/22 09:35:54;;;;;;;0.77;0.77;;;;;;;32.33;51.82;94557.69;5093614;28;20427;-61
2022/08/22 09:38:33;;;;;;;0.80;0.63;;;;;;;30.95;55.25;94560.38;5093773;28;20426;-61
2022/08/22 09:41:18;;;;;;;0.50;0.50;;;;;;;30.68;57.85;94541.28;5093669;28;20455;-60
2022/08/22 09:44:01;;;;;;;0.80;0.57;;;;;;;30.74;62.69;94542.34;5093374;28;20498;-59
2022/08/22 09:46:35;;;;;;;4.13;1.97;;;;;;;30.26;65.54;94541.16;5093690;28;20481;-60
2022/08/22 09:49:11;;;;;;;0.60;0.60;;;;;;;30.29;67.46;94537.56;5093146;28;20460;-61
2022/08/22 09:51:46;;;;;;;0.40;0.40;;;;;;;30.72;70.61;94533.00;5093111;28;20458;-61
2022/08/22 09:54:32;;;;;;;0.70;0.70;;;;;;;29.84;75.72;94531.56;5093187;28;20842;-60
2022/08/22 09:57:14;;;;;;;1.00;1.00;;;;;;;29.56;86.33;94519.03;5093019;28;20562;-59
2022/08/22 10:00:17;;;;;;;0.80;0.80;;;;;;;29.93;86.13;94540.81;5093091;28;20439;-58
2022/08/22 10:03:17;;;;;;;0.60;0.47;;;;;;;30.50;74.00;94546.25;5090757;28;20440;-58
2022/08/22 10:05:48;;;;;;;0.50;0.40;;;;;;;30.49;76.20;94539.22;5091514;28;20893;-58
2022/08/22 10:08:38;;;;;;;0.60;0.50;;;;;;;30.52;74.07;94532.16;5092649;28;20434;-58
2022/08/22 10:11:27;;;;;;;0.43;0.40;;;;;;;30.37;74.38;94528.88;5092802;28;20526;-59
2022/08/22 10:14:03;;;;;;;0.93;0.93;;;;;;;29.94;83.18;94545.09;5092507;28;20468;-59
2022/08/22 10:16:48;;;;;;;0.40;0.40;;;;;;;29.89;81.36;94542.81;5092420;28;21062;-58
2022/08/22 10:19:24;;;;;;;1.17;0.47;;;;;;;30.06;81.86;94551.94;5092360;28;20553;-58
2022/08/22 10:22:26;;;;;;;0.83;0.40;;;;;;;30.13;80.66;94568.28;5092369;28;20523;-59
2022/08/22 10:25:23;;;;;;;1.07;0.60;;;;;;;29.88;76.39;94557.66;5049710;28;20425;-59
2022/08/22 10:28:32;;;;;;;0.53;0.53;;;;;;;29.74;84.01;94554.31;5091961;28;20452;-59
2022/08/22 10:31:22;;;;;;;2.93;0.40;;;;;;;29.62;80.70;94552.13;5092383;28;20430;-59
2022/08/22 10:34:01;;;;;;;0.50;0.50;;;;;;;29.90;85.94;94558.06;5092180;28;20487;-59
2022/08/22 10:36:43;;;;;;;0.40;0.37;;;;;;;29.91;77.39;94561.53;5092097;28;20462;-58
2022/08/22 10:39:18;;;;;;;0.60;0.60;;;;;;;29.84;78.26;94567.09;5092077;28;20421;-58
2022/08/22 10:42:24;;;;;;;0.50;0.50;;;;;;;29.31;84.76;94557.56;5092433;28;20443;-58
2022/08/22 10:45:16;;;;;;;0.60;0.50;;;;;;;29.04;92.22;94559.38;5092428;28;20430;-59
2022/08/22 10:48:31;;;;;;;0.50;0.40;;;;;;;28.76;100.00;94557.69;5091951;28;20496;-59
2022/08/22 10:51:09;;;;;;;0.50;0.43;;;;;;;28.71;100.00;94549.94;5083014;28;20449;-58
2022/08/22 10:53:59;;;;;;;0.93;0.93;;;;;;;28.66;98.99;94552.31;5091727;28;20439;-58
2022/08/22 10:56:35;;;;;;;0.50;0.50;;;;;;;28.57;100.00;94539.13;5089344;28;20506;-57
2022/08/22 10:59:25;;;;;;;0.90;0.80;;;;;;;28.55;100.00;94538.75;5091872;28;20523;-58
2022/08/22 11:02:13;;;;;;;0.53;0.50;;;;;;;28.93;100.00;94534.94;5091628;28;20462;-57
2022/08/22 11:05:06;;;;;;;0.40;0.30;;;;;;;28.79;100.00;94537.03;5091951;28;20413;-57
2022/08/22 11:07:45;;;;;;;5.17;1.93;;;;;;;28.41;100.00;94554.44;5091511;28;20433;-57
2022/08/22 11:10:28;;;;;;;0.50;0.40;;;;;;;28.52;100.00;94563.31;5091704;28;20464;-57
2022/08/22 11:13:11;;;;;;;0.50;0.50;;;;;;;28.56;100.00;94567.56;5091694;28;20435;-58
2022/08/22 11:15:58;;;;;;;0.50;0.50;;;;;;;28.08;100.00;94555.84;5091453;28;20860;-57
2022/08/22 11:18:58;;;;;;;0.93;0.93;;;;;;;28.48;100.00;94570.75;5091112;28;21023;-57
2022/08/22 11:21:46;;;;;;;0.40;0.30;;;;;;;28.94;100.00;94555.56;5091505;28;20505;-57
2022/08/22 11:25:03;;;;;;;0.67;0.67;;;;;;;29.11;100.00;94561.25;5091440;28;20959;-57
2022/08/22 11:27:43;;;;;;;0.50;0.40;;;;;;;28.93;93.20;94561.44;5091433;28;20501;-58
2022/08/22 11:30:14;;;;;;;0.70;0.70;;;;;;;28.58;99.49;94570.66;5091594;28;20469;-59
2022/08/22 11:33:21;;;;;;;0.60;0.53;;;;;;;28.42;100.00;94564.94;5091464;28;20420;-58
2022/08/22 11:36:12;;;;;;;0.40;0.40;;;;;;;28.28;100.00;94573.97;5091900;28;20432;-58
2022/08/22 11:38:53;;;;;;;0.50;0.50;;;;;;;27.56;95.65;94433.19;5091608;28;20467;-58
2022/08/22 11:41:26;;;;;;;1.10;0.50;;;;;;;28.47;95.08;94550.09;5095450;28;20431;-58
2022/08/22 11:44:00;;;;;;;0.90;0.90;;;;;;;28.25;96.88;94560.41;5094276;28;20535;-58
2022/08/22 11:46:34;;;;;;;0.97;0.87;;;;;;;28.14;100.00;94546.06;5095272;28;20774;-58
2022/08/22 11:49:28;;;;;;;1.37;0.50;;;;;;;28.59;97.05;94598.72;5095305;28;20456;-58
2022/08/22 11:52:17;;;;;;;1.23;1.13;;;;;;;27.93;100.00;94563.25;5095351;28;20475;-58
2022/08/22 11:55:05;;;;;;;1.70;1.43;;;;;;;27.05;100.00;94439.25;5095212;28;20472;-58
2022/08/22 11:57:37;;;;;;;0.97;0.60;;;;;;;27.94;100.00;94594.00;5095408;28;20484;-56
2022/08/22 12:00:25;;;;;;;0.90;0.90;;;;;;;28.14;100.00;94592.38;5095442;28;20434;-57
2022/08/22 12:03:45;;;;;;;0.50;0.30;;;;;;;28.24;100.00;94591.53;5095338;28;20489;-57
2022/08/22 12:06:40;;;;;;;0.47;0.40;;;;;;;28.36;100.00;94565.78;5052593;28;20432;-57
2022/08/22 12:09:15;;;;;;;0.70;0.50;;;;;;;28.18;100.00;94576.78;5095538;28;20514;-57
2022/08/22 12:11:59;;;;;;;1.10;0.80;;;;;;;28.15;100.00;94572.13;5095010;28;20902;-58
2022/08/22 12:14:33;;;;;;;1.10;0.93;;;;;;;27.80;100.00;94577.75;5094920;28;20909;-56
2022/08/22 12:17:23;;;;;;;0.50;0.40;;;;;;;27.73;100.00;94580.50;5095291;28;20424;-57
2022/08/22 12:20:29;;;;;;;0.83;0.50;;;;;;;28.01;100.00;94578.44;5094619;28;20490;-57
2022/08/22 12:23:24;;;;;;;1.00;1.00;;;;;;;28.05;100.00;94581.16;5094897;28;20515;-56
2022/08/22 12:26:21;;;;;;;0.67;0.67;;;;;;;27.91;100.00;94589.34;5094552;28;21043;-56
2022/08/22 12:29:03;;;;;;;0.40;0.40;;;;;;;27.85;100.00;94589.00;5095107;28;20762;-57
2022/08/22 12:32:13;;;;;;;0.50;0.40;;;;;;;27.81;100.00;94587.47;5094634;28;20436;-57
2022/08/22 12:34:54;;;;;;;1.57;0.77;;;;;;;27.93;100.00;94597.94;5051539;28;20524;-57
2022/08/22 12:37:29;;;;;;;0.90;0.83;;;;;;;27.91;100.00;94581.19;5094699;28;20500;-57
2022/08/22 12:43:49;;;;;;;1.43;1.33;;;;;;;27.49;100.00;94590.31;5094595;28;20511;-57
2022/08/22 12:46:28;;;;;;;7.63;1.30;;;;;;;27.51;100.00;94591.47;5094301;28;20457;-57
2022/08/22 12:49:14;;;;;;;2.70;1.20;;;;;;;27.50;100.00;94600.81;5094267;28;20569;-57